Time;durP1;ratioP1;P1;durP2;ratioP2;P2;SDS_P1;SDS_P2;PMS_P1;PMS_P2;Temp;Humidity;BMP_temperature;BMP_pressure;BME280_temperature;BME280_humidity;BME280_pressure;Samples;Min_cycle;Max_cycle;Signal;HPM_P1;HPM_P2
2022/01/28 16:00:19;;;;;;;17.40;10.40;;;;;;;1.29;94.60;98832.02;418143;1314;637190;-42
2022/01/28 16:10:35;;;;;;;28.50;12.70;;;;;;;1.43;94.78;98830.33;425538;1281;5374316;-39
2022/01/28 16:20:42;;;;;;;33.10;13.10;;;;;;;1.53;94.68;98856.40;429710;1281;107836;-40
2022/01/28 16:30:53;;;;;;;24.10;10.30;;;;;;;1.56;94.63;98878.67;429663;1281;108150;-40
2022/01/28 16:41:00;;;;;;;33.90;12.80;;;;;;;1.57;94.50;98899.91;429574;1281;94948;-40
2022/01/28 16:51:07;;;;;;;24.90;9.80;;;;;;;1.54;94.26;98923.73;429380;1281;107092;-40
2022/01/28 17:01:15;;;;;;;26.60;9.90;;;;;;;1.51;94.24;98936.84;429442;1281;108859;-40
2022/01/28 17:11:38;;;;;;;23.30;8.90;;;;;;;1.49;94.04;98943.29;429474;1282;107959;-41
2022/01/28 17:21:45;;;;;;;19.60;9.50;;;;;;;1.49;93.99;98947.69;429802;1282;95707;-40
2022/01/28 17:31:53;;;;;;;22.30;9.40;;;;;;;1.50;93.77;98961.75;429531;1282;108603;-40
2022/01/28 17:42:00;;;;;;;26.80;8.60;;;;;;;1.52;93.57;98966.94;429631;1282;109017;-41
2022/01/28 17:52:05;;;;;;;12.60;2.90;;;;;;;1.36;92.33;99020.79;429440;1282;97226;-39
2022/01/28 18:02:16;;;;;;;6.30;2.10;;;;;;;0.37;93.25;99048.34;429541;1281;109973;-40
2022/01/28 18:12:24;;;;;;;15.40;3.50;;;;;;;0.04;94.45;99042.86;429593;1281;109062;-40
2022/01/28 18:22:31;;;;;;;9.70;4.50;;;;;;;0.04;94.53;99046.50;429707;1281;95361;-39
2022/01/28 18:32:38;;;;;;;22.30;7.60;;;;;;;0.12;93.34;99068.36;429769;1281;108916;-40
2022/01/28 18:52:53;;;;;;;6.70;2.70;;;;;;;0.18;91.15;99108.36;429863;1281;109597;-39
2022/01/28 19:03:01;;;;;;;26.10;9.30;;;;;;;0.06;89.86;99126.23;430501;1277;108997;-40
2022/01/28 19:13:09;;;;;;;14.90;3.60;;;;;;;-0.05;89.08;99144.10;431915;1274;96141;-39
2022/01/28 19:23:16;;;;;;;9.80;4.10;;;;;;;-0.11;87.93;99171.73;431691;1274;109772;-39
2022/01/28 19:33:24;;;;;;;11.20;4.90;;;;;;;-0.21;87.90;99188.80;431813;1274;108908;-39
2022/01/28 19:43:31;;;;;;;8.90;3.20;;;;;;;-0.30;87.64;99193.08;431888;1274;96222;-39
2022/01/28 19:53:39;;;;;;;8.20;3.70;;;;;;;-0.25;87.27;99216.70;431856;1274;109868;-40
2022/01/28 20:03:46;;;;;;;7.80;3.00;;;;;;;-0.10;87.33;99228.61;431886;1274;108821;-39
2022/01/28 20:13:54;;;;;;;9.60;5.00;;;;;;;0.04;86.64;99245.10;431761;1274;95825;-42
2022/01/28 20:24:01;;;;;;;21.90;6.10;;;;;;;0.11;86.62;99255.80;431606;1274;109532;-39
2022/01/28 20:34:09;;;;;;;18.00;5.90;;;;;;;0.17;85.55;99265.51;431607;1274;107656;-40
2022/01/28 20:44:15;;;;;;;12.90;4.30;;;;;;;0.26;84.54;99277.83;430570;1277;96098;-39
2022/01/28 20:54:24;;;;;;;14.10;5.30;;;;;;;0.30;84.71;99294.29;430575;1274;109499;-40
2022/01/28 21:04:30;;;;;;;23.00;8.60;;;;;;;0.26;84.27;99313.89;432031;1273;107548;-40
2022/01/28 21:14:37;;;;;;;7.70;3.70;;;;;;;0.29;84.42;99334.83;431772;1274;108885;-39
2022/01/28 21:24:45;;;;;;;13.70;4.40;;;;;;;0.33;84.10;99350.43;432203;1274;96199;-39
2022/01/28 21:34:54;;;;;;;17.80;7.40;;;;;;;0.30;84.01;99376.70;431908;1274;109752;-39
2022/01/28 21:45:01;;;;;;;15.40;6.20;;;;;;;0.30;83.68;99384.10;432021;1273;108072;-40
2022/01/28 21:55:08;;;;;;;20.00;7.40;;;;;;;0.32;83.56;99387.27;431940;1272;96172;-39
2022/01/28 22:05:15;;;;;;;21.10;8.20;;;;;;;0.26;83.86;99395.59;431999;1273;110300;-40
2022/01/28 22:15:23;;;;;;;21.10;6.70;;;;;;;0.26;83.39;99397.89;431915;1273;108905;-40
2022/01/28 22:25:36;;;;;;;16.20;7.60;;;;;;;0.23;83.48;99400.04;431905;1273;95502;-39
2022/01/28 22:35:42;;;;;;;26.80;8.80;;;;;;;0.15;83.49;99400.98;432055;1273;108785;-40
2022/01/28 22:45:48;;;;;;;14.70;5.30;;;;;;;0.09;83.02;99401.10;431986;1273;108602;-40
2022/01/28 22:55:55;;;;;;;16.20;6.40;;;;;;;0.07;82.62;99414.57;431839;1273;108859;-40
2022/01/28 23:06:03;;;;;;;28.10;12.50;;;;;;;-0.04;82.82;99412.09;431840;1273;95591;-39
2022/01/28 23:16:10;;;;;;;25.40;11.00;;;;;;;-0.21;83.27;99418.39;431949;1273;110112;-40
2022/01/28 23:36:25;;;;;;;9.00;4.40;;;;;;;-0.36;83.53;99436.40;432034;1273;108695;-40
2022/01/28 23:46:32;;;;;;;11.50;4.70;;;;;;;-0.45;83.62;99439.80;431977;1272;95713;-39
2022/01/28 23:56:40;;;;;;;26.80;8.50;;;;;;;-0.62;83.94;99435.31;432036;1273;109999;-40
